createdAt,value
2022-09-22T00:03:59.676Z,101310.25
2022-09-22T00:09:00.019Z,101312.25
2022-09-22T00:13:58.499Z,101310.94
2022-09-22T00:18:55.946Z,101312.56
2022-09-22T00:23:52.932Z,101314.56
2022-09-22T00:28:52.631Z,101318.63
2022-09-22T00:33:49.651Z,101319.66
2022-09-22T00:38:52.183Z,101313.28
2022-09-22T00:43:50.109Z,101309.84
2022-09-22T00:48:48.672Z,101304.84
2022-09-22T00:53:46.059Z,101303.19
2022-09-22T00:58:45.255Z,101307.47
2022-09-22T01:03:43.446Z,101309.72
2022-09-22T01:08:40.523Z,101305.84
2022-09-22T01:13:42.917Z,101311.13
2022-09-22T01:18:44.610Z,101313.34
2022-09-22T01:24:11.177Z,101319.63
2022-09-22T01:29:21.061Z,101322.84
2022-09-22T01:34:22.060Z,101317.78
2022-09-22T01:39:22.240Z,101318.34
2022-09-22T01:44:24.780Z,101313.28
2022-09-22T01:49:22.886Z,101319.47
2022-09-22T01:54:23.561Z,101314.59
2022-09-22T01:59:24.656Z,101311.22
2022-09-22T02:04:26.557Z,101309.66
2022-09-22T02:09:24.768Z,101309.44
2022-09-22T02:14:26.633Z,101303.66
2022-09-22T02:19:28.100Z,101286.81
2022-09-22T02:24:26.564Z,101313.22
2022-09-22T02:29:25.959Z,101312.28
2022-09-22T02:34:22.741Z,101317.88
2022-09-22T02:39:24.441Z,101311.78
2022-09-22T02:44:23.868Z,101316.88
2022-09-22T02:49:27.454Z,101318.78
2022-09-22T02:54:24.933Z,101329.22
2022-09-22T02:59:21.688Z,101328.56
2022-09-22T03:04:20.125Z,101329.31
2022-09-22T03:09:18.673Z,101328.63
2022-09-22T03:14:16.121Z,101333.03
2022-09-22T03:19:12.757Z,101329.38
2022-09-22T03:24:12.404Z,101336.06
2022-09-22T03:29:09.357Z,101332.16
2022-09-22T03:34:07.073Z,101334.91
2022-09-22T03:39:07.059Z,101336.44
2022-09-22T03:44:05.648Z,101339.47
2022-09-22T03:49:03.687Z,101340.34
2022-09-22T03:54:01.235Z,101340.06
2022-09-22T03:58:58.085Z,101339.34
2022-09-22T04:03:57.236Z,101340.47
2022-09-22T04:09:01.374Z,101343.13
2022-09-22T04:14:00.831Z,101342.44
2022-09-22T04:18:57.698Z,101336.69
2022-09-22T04:23:54.548Z,101341.50
2022-09-22T04:28:51.404Z,101347.28
2022-09-22T04:33:49.408Z,101345.69
2022-09-22T04:38:46.106Z,101345.72
2022-09-22T04:43:42.928Z,101341.56
2022-09-22T04:48:40.754Z,101351.78
2022-09-22T04:53:38.074Z,101350.56
2022-09-22T04:58:37.343Z,101357.91
2022-09-22T05:03:37.592Z,101350.84
2022-09-22T05:08:34.565Z,101353.44
2022-09-22T05:13:35.287Z,101349.38
2022-09-22T05:18:32.307Z,101342.03
2022-09-22T05:23:29.747Z,101348.69
2022-09-22T05:28:26.527Z,101362.03
2022-09-22T05:33:23.851Z,101363.31
2022-09-22T05:38:20.834Z,101361.31
2022-09-22T05:43:17.657Z,101357.72
2022-09-22T05:48:21.898Z,101368.22
2022-09-22T05:53:23.228Z,101368.16
2022-09-22T05:58:20.068Z,101377.88
2022-09-22T06:03:17.096Z,101365.16
2022-09-22T06:08:14.099Z,101366.47
2022-09-22T06:13:14.677Z,101373.63
2022-09-22T06:18:24.388Z,101366.25
2022-09-22T06:23:23.589Z,101368.31
2022-09-22T06:28:25.446Z,101373.78
2022-09-22T06:33:23.480Z,101384.31
2022-09-22T06:38:20.886Z,101376.25
2022-09-22T06:43:22.186Z,101377.94
2022-09-22T06:48:25.788Z,101389.97
2022-09-22T06:53:51.828Z,101391.00
2022-09-22T06:59:08.743Z,101388.59
2022-09-22T07:04:10.097Z,101395.34
2022-09-22T07:09:08.558Z,101393.22
2022-09-22T07:14:05.526Z,101388.16
2022-09-22T07:19:02.324Z,101387.28
2022-09-22T07:24:02.795Z,101387.97
2022-09-22T07:29:01.636Z,101391.59
2022-09-22T07:34:02.523Z,101392.28
2022-09-22T07:39:06.384Z,101393.75
2022-09-22T07:44:18.066Z,101388.81
2022-09-22T07:49:17.022Z,101387.38
2022-09-22T07:54:14.496Z,101384.53
2022-09-22T07:59:13.193Z,101389.31
2022-09-22T08:04:16.247Z,101386.53
2022-09-22T08:09:17.780Z,101391.19
2022-09-22T08:14:17.030Z,101378.31
2022-09-22T08:19:17.921Z,101383.50
2022-09-22T08:24:21.520Z,101373.53
2022-09-22T08:29:19.169Z,101378.00
2022-09-22T08:34:18.048Z,101375.66
2022-09-22T08:39:17.540Z,101364.34
2022-09-22T08:44:25.558Z,101355.75
2022-09-22T08:49:43.387Z,101351.53
2022-09-22T08:54:41.410Z,101355.47
2022-09-22T08:59:45.303Z,101360.19
2022-09-22T09:04:59.713Z,101359.44
2022-09-22T09:10:03.247Z,101347.56
2022-09-22T09:15:18.475Z,101336.19
2022-09-22T09:20:19.351Z,101325.09
2022-09-22T09:25:23.615Z,101344.38
2022-09-22T09:30:24.963Z,101337.78
2022-09-22T09:35:26.102Z,101339.75
2022-09-22T09:40:26.801Z,101332.81
2022-09-22T09:45:31.071Z,101334.06
2022-09-22T09:50:31.629Z,101329.91
2022-09-22T09:55:28.899Z,101334.28
2022-09-22T10:00:31.837Z,101324.00
2022-09-22T10:05:32.660Z,101313.00
2022-09-22T10:10:44.545Z,101319.16
2022-09-22T10:15:42.666Z,101320.75
2022-09-22T10:20:42.502Z,101315.13
2022-09-22T10:25:39.378Z,101311.63
2022-09-22T10:30:37.227Z,101303.69
2022-09-22T10:35:35.217Z,101302.31
2022-09-22T10:40:35.344Z,101298.03
2022-09-22T10:45:47.265Z,101288.81
2022-09-22T10:50:58.385Z,101291.47
2022-09-22T10:56:06.250Z,101285.16
2022-09-22T11:01:18.514Z,101282.59
2022-09-22T11:06:46.581Z,101268.16
2022-09-22T11:12:09.208Z,101273.88
2022-09-22T11:17:17.836Z,101258.25
2022-09-22T11:22:38.876Z,101258.97
2022-09-22T11:27:44.458Z,101253.22
2022-09-22T11:32:53.749Z,101250.16
2022-09-22T11:38:01.839Z,101245.69
2022-09-22T11:43:04.683Z,101240.31
2022-09-22T11:48:05.662Z,101229.13
2022-09-22T11:53:29.263Z,101234.06
2022-09-22T11:58:28.762Z,101224.59
2022-09-22T12:03:27.689Z,101219.91
2022-09-22T12:08:28.589Z,101215.25
2022-09-22T12:13:36.553Z,101228.16
2022-09-22T12:18:57.570Z,101197.72
2022-09-22T12:23:59.757Z,101210.78
2022-09-22T12:28:58.698Z,101205.94
2022-09-22T12:33:58.511Z,101204.94
2022-09-22T12:39:15.870Z,101190.69
2022-09-22T12:44:19.030Z,101186.06
2022-09-22T12:49:26.479Z,101186.31
2022-09-22T13:00:05.587Z,101168.34
2022-09-22T13:05:34.645Z,101178.56
2022-09-22T13:10:53.476Z,101176.22
2022-09-22T13:21:29.421Z,101168.47
2022-09-22T13:26:29.430Z,101168.25
2022-09-22T13:31:26.634Z,101155.50
2022-09-22T13:36:26.800Z,101161.44
2022-09-22T13:41:27.205Z,101167.72
2022-09-22T13:46:25.252Z,101156.69
2022-09-22T13:51:24.444Z,101151.75
2022-09-22T13:56:22.922Z,101153.78
2022-09-22T14:01:24.016Z,101147.66
2022-09-22T14:06:23.071Z,101150.38
2022-09-22T14:11:21.505Z,101150.09
2022-09-22T14:16:27.862Z,101152.53
2022-09-22T14:21:24.790Z,101133.41
2022-09-22T14:26:33.146Z,101146.91
2022-09-22T14:31:40.213Z,101131.41
2022-09-22T14:36:37.218Z,101152.22
2022-09-22T14:41:41.927Z,101150.31
2022-09-22T14:46:43.024Z,101153.72
2022-09-22T14:51:48.690Z,101131.81
2022-09-22T14:56:49.037Z,101147.50
2022-09-22T15:02:07.540Z,101149.47
2022-09-22T15:07:04.303Z,101144.69
2022-09-22T15:12:02.801Z,101152.97
2022-09-22T15:17:18.079Z,101154.59
2022-09-22T15:22:14.854Z,101156.28
2022-09-22T15:27:18.744Z,101155.97
2022-09-22T15:32:18.660Z,101158.41
2022-09-22T15:37:19.344Z,101162.84
2022-09-22T15:42:19.070Z,101170.16
2022-09-22T15:47:27.525Z,101166.66
2022-09-22T15:52:24.819Z,101169.09
2022-09-22T15:57:21.832Z,101177.94
2022-09-22T16:02:21.565Z,101174.22
2022-09-22T16:07:22.421Z,101176.06
2022-09-22T16:13:19.228Z,101170.72
2022-09-22T16:18:45.354Z,101172.91
2022-09-22T16:23:49.569Z,101176.50
2022-09-22T16:28:57.197Z,101173.09
2022-09-22T16:33:55.122Z,101168.16
2022-09-22T16:38:53.759Z,101189.72
2022-09-22T16:43:50.800Z,101201.59
2022-09-22T16:48:50.479Z,101206.97
2022-09-22T16:53:54.648Z,101213.72
2022-09-22T16:58:51.727Z,101216.03
2022-09-22T17:03:49.557Z,101220.63
2022-09-22T17:08:53.063Z,101224.47
2022-09-22T17:13:50.279Z,101220.13
2022-09-22T17:18:48.837Z,101222.28
2022-09-22T17:23:52.917Z,101230.13
2022-09-22T17:28:56.986Z,101234.22
2022-09-22T17:33:54.543Z,101237.56
2022-09-22T17:38:53.812Z,101247.09
2022-09-22T17:44:05.949Z,101241.06
2022-09-22T17:49:36.178Z,101248.72
2022-09-22T17:54:59.284Z,101259.88
2022-09-22T17:59:56.701Z,101271.94
2022-09-22T18:04:53.593Z,101264.25
2022-09-22T18:09:53.354Z,101269.28
2022-09-22T18:14:51.551Z,101270.69
2022-09-22T18:19:48.419Z,101267.41
2022-09-22T18:24:45.232Z,101269.16
2022-09-22T18:29:42.638Z,101270.72
2022-09-22T18:34:40.319Z,101266.28
2022-09-22T18:39:40.140Z,101267.44
2022-09-22T18:44:42.392Z,101271.53
2022-09-22T18:49:41.054Z,101271.13
2022-09-22T18:54:43.698Z,101264.91
2022-09-22T18:59:40.740Z,101263.19
2022-09-22T19:04:38.261Z,101273.56
2022-09-22T19:09:35.974Z,101288.28
2022-09-22T19:14:37.739Z,101303.69
2022-09-22T19:19:37.742Z,101289.41
2022-09-22T19:24:36.884Z,101272.56
2022-09-22T19:29:35.052Z,101271.28
2022-09-22T19:34:32.388Z,101261.91
2022-09-22T19:39:31.552Z,101261.53
2022-09-22T19:44:31.932Z,101293.13
2022-09-22T19:49:30.884Z,101296.38
2022-09-22T19:54:27.847Z,101297.63
2022-09-22T19:59:24.812Z,101296.19
2022-09-22T20:04:26.701Z,101291.63
2022-09-22T20:09:23.460Z,101290.59
2022-09-22T20:14:21.418Z,101291.88
2022-09-22T20:19:19.705Z,101301.91
2022-09-22T20:24:18.465Z,101316.88
2022-09-22T20:29:20.118Z,101336.47
2022-09-22T20:34:16.892Z,101324.19
2022-09-22T20:39:19.039Z,101340.13
2022-09-22T20:44:18.664Z,101338.44
2022-09-22T20:49:15.421Z,101348.47
2022-09-22T20:54:12.274Z,101326.28
2022-09-22T20:59:11.089Z,101347.19
2022-09-22T21:04:11.817Z,101343.94
2022-09-22T21:09:29.104Z,101341.66
2022-09-22T21:14:28.644Z,101340.53
2022-09-22T21:19:26.149Z,101341.25
2022-09-22T21:24:27.325Z,101349.50
2022-09-22T21:29:24.235Z,101359.06
2022-09-22T21:34:21.086Z,101348.44
2022-09-22T21:39:20.790Z,101344.22
2022-09-22T21:44:17.524Z,101346.41
2022-09-22T21:49:14.419Z,101337.88
2022-09-22T21:54:19.685Z,101335.63
2022-09-22T21:59:17.308Z,101344.22
2022-09-22T22:04:36.907Z,101343.41
2022-09-22T22:09:33.725Z,101346.13
2022-09-22T22:14:40.654Z,101336.03
2022-09-22T22:19:37.944Z,101329.31
2022-09-22T22:24:38.575Z,101337.16
2022-09-22T22:29:39.145Z,101342.84
2022-09-22T22:34:36.300Z,101347.41
2022-09-22T22:39:33.041Z,101344.47
2022-09-22T22:44:31.189Z,101344.72
2022-09-22T22:49:30.178Z,101341.75
2022-09-22T22:54:27.100Z,101331.56
2022-09-22T22:59:25.490Z,101330.53
2022-09-22T23:04:28.922Z,101323.38
2022-09-22T23:09:28.297Z,101316.75
2022-09-22T23:14:25.085Z,101316.28
2022-09-22T23:19:21.843Z,101316.03
2022-09-22T23:24:22.192Z,101308.16
2022-09-22T23:29:23.264Z,101307.19
2022-09-22T23:34:21.402Z,101300.81
2022-09-22T23:39:18.197Z,101303.44
2022-09-22T23:44:15.695Z,101296.88
2022-09-22T23:49:13.482Z,101290.66
2022-09-22T23:54:10.625Z,101276.22
2022-09-22T23:59:07.514Z,101291.03
